Time;durP1;ratioP1;P1;durP2;ratioP2;P2;SDS_P1;SDS_P2;PMS_P1;PMS_P2;Temp;Humidity;BMP_temperature;BMP_pressure;BME280_temperature;BME280_humidity;BME280_pressure;Samples;Min_cycle;Max_cycle;Signal;HPM_P1;HPM_P2
2022/01/04 00:01:26;;;;;;;0.90;0.90;;;;;;;-9.39;80.83;97542.84;4918317;29;20108;-86
2022/01/04 00:03:53;;;;;;;0.70;0.70;;;;;;;-9.36;80.95;97552.16;4920672;29;20044;-90
2022/01/04 00:06:20;;;;;;;0.80;0.80;;;;;;;-9.40;80.91;97550.81;4917459;29;20111;-90
2022/01/04 00:08:47;;;;;;;0.90;0.90;;;;;;;-9.43;80.98;97559.78;4920041;29;20115;-89
2022/01/04 00:11:20;;;;;;;0.70;0.70;;;;;;;-9.44;81.04;97563.38;4921860;29;20063;-88
2022/01/04 00:13:47;;;;;;;0.90;0.90;;;;;;;-9.44;80.98;97570.41;4907900;29;20063;-91
2022/01/04 00:16:14;;;;;;;0.90;0.90;;;;;;;-9.43;80.98;97561.56;4919569;29;20523;-91
2022/01/04 00:18:41;;;;;;;0.80;0.80;;;;;;;-9.43;81.26;97558.97;4919134;29;20058;-91
2022/01/04 00:21:09;;;;;;;0.60;0.60;;;;;;;-9.44;81.17;97559.94;4894803;29;20142;-89
2022/01/04 00:23:36;;;;;;;1.00;1.00;;;;;;;-9.46;81.24;97548.81;4916319;29;20048;-89
2022/01/04 00:26:08;;;;;;;0.93;0.93;;;;;;;-9.44;81.14;97552.09;4915950;29;20086;-89
2022/01/04 00:28:35;;;;;;;0.80;0.80;;;;;;;-9.43;80.94;97553.75;4915067;29;20056;-89
2022/01/04 00:31:02;;;;;;;0.93;0.93;;;;;;;-9.45;80.86;97558.28;4918926;29;20075;-90
2022/01/04 00:33:29;;;;;;;1.00;1.00;;;;;;;-9.44;80.93;97558.16;4921039;29;20064;-91
2022/01/04 00:35:56;;;;;;;0.80;0.80;;;;;;;-9.41;80.91;97567.47;4921128;29;20107;-89
2022/01/04 00:38:24;;;;;;;0.90;0.90;;;;;;;-9.45;80.86;97573.97;4922649;29;20048;-93
2022/01/04 00:40:51;;;;;;;0.90;0.90;;;;;;;-9.48;80.84;97571.66;4936695;29;20033;-89
2022/01/04 00:43:18;;;;;;;0.80;0.80;;;;;;;-9.45;81.05;97584.41;4941025;29;20052;-90
2022/01/04 00:46:15;;;;;;;1.00;1.00;;;;;;;-9.41;81.09;97590.97;4932928;29;20032;-90
2022/01/04 00:51:30;;;;;;;0.90;0.90;;;;;;;-9.49;81.07;97580.50;4911617;29;20059;-89
2022/01/04 00:53:57;;;;;;;0.80;0.80;;;;;;;-9.48;81.02;97588.16;4936402;29;20080;-89
2022/01/04 00:56:24;;;;;;;0.88;0.88;;;;;;;-9.53;81.20;97592.19;4938004;29;20067;-87
2022/01/04 00:58:51;;;;;;;1.00;1.00;;;;;;;-9.55;81.25;97583.69;4937557;29;20107;-89
2022/01/04 01:01:19;;;;;;;0.80;0.80;;;;;;;-9.58;81.36;97587.44;4928990;29;20056;-89
2022/01/04 01:03:47;;;;;;;1.00;1.00;;;;;;;-9.64;81.20;97583.63;4920133;29;20439;-88
2022/01/04 01:06:15;;;;;;;1.00;1.00;;;;;;;-9.66;81.32;97582.16;4920565;29;20056;-89
2022/01/04 01:08:42;;;;;;;1.00;1.00;;;;;;;-9.65;81.28;97584.59;4919372;29;20060;-89
2022/01/04 01:11:09;;;;;;;0.80;0.80;;;;;;;-9.61;81.36;97585.13;4918433;29;20056;-87
2022/01/04 01:13:37;;;;;;;0.90;0.90;;;;;;;-9.63;81.24;97580.03;4919827;29;20063;-90
2022/01/04 01:16:05;;;;;;;0.80;0.80;;;;;;;-9.66;81.30;97585.56;4918047;29;20056;-90
2022/01/04 01:18:32;;;;;;;0.95;0.95;;;;;;;-9.66;81.55;97595.22;4919748;29;20531;-89
2022/01/04 01:21:00;;;;;;;0.98;0.98;;;;;;;-9.67;81.51;97593.56;4919936;29;20091;-89
2022/01/04 01:23:27;;;;;;;0.80;0.80;;;;;;;-9.62;81.72;97596.53;4920359;29;20507;-90
2022/01/04 01:25:54;;;;;;;1.10;1.10;;;;;;;-9.58;81.76;97591.84;4922097;29;20043;-90
2022/01/04 01:28:22;;;;;;;1.02;1.02;;;;;;;-9.55;81.85;97586.31;4937093;29;20056;-88
2022/01/04 01:30:50;;;;;;;0.98;0.98;;;;;;;-9.52;81.74;97588.59;4933336;29;20062;-91
2022/01/04 01:33:17;;;;;;;1.08;1.08;;;;;;;-9.55;81.60;97581.06;4920208;29;20054;-91
2022/01/04 01:35:45;;;;;;;1.10;1.10;;;;;;;-9.51;81.54;97600.72;4918340;29;20246;-90
2022/01/04 01:38:14;;;;;;;0.90;0.90;;;;;;;-9.47;81.51;97595.03;4919084;29;20056;-90
2022/01/04 01:40:42;;;;;;;0.85;0.85;;;;;;;-9.45;81.61;97595.69;4912664;29;20048;-88
2022/01/04 01:43:09;;;;;;;1.00;1.00;;;;;;;-9.45;81.61;97584.41;4918513;29;20072;-89
2022/01/04 01:45:36;;;;;;;1.02;1.02;;;;;;;-9.44;81.62;97591.28;4919672;29;20116;-91
2022/01/04 01:48:05;;;;;;;0.90;0.90;;;;;;;-9.45;81.70;97592.25;4918042;29;20139;-91
2022/01/04 01:50:32;;;;;;;0.98;0.98;;;;;;;-9.51;81.28;97598.91;4919599;29;20080;-90
2022/01/04 01:53:00;;;;;;;0.90;0.90;;;;;;;-9.49;81.72;97598.78;4920210;29;20103;-90
2022/01/04 01:55:27;;;;;;;0.85;0.85;;;;;;;-9.47;81.68;97600.25;4903640;29;20058;-91
2022/01/04 01:57:54;;;;;;;0.60;0.60;;;;;;;-9.47;81.57;97594.19;4903932;29;20488;-91
2022/01/04 02:00:24;;;;;;;0.90;0.90;;;;;;;-9.44;81.46;97601.75;4920056;29;20052;-92
2022/01/04 02:02:52;;;;;;;1.05;1.05;;;;;;;-9.49;81.38;97593.53;4919620;29;20044;-92
2022/01/04 02:05:19;;;;;;;0.80;0.80;;;;;;;-9.56;81.61;97597.72;4919824;29;20463;-90
2022/01/04 02:07:46;;;;;;;1.00;1.00;;;;;;;-9.58;81.75;97592.66;4919849;29;20426;-91
2022/01/04 02:10:14;;;;;;;1.02;1.02;;;;;;;-9.54;81.80;97591.38;4918557;29;20060;-90
2022/01/04 02:12:46;;;;;;;1.10;1.10;;;;;;;-9.48;81.71;97595.19;4922293;29;20071;-91
2022/01/04 02:15:19;;;;;;;0.98;0.98;;;;;;;-9.47;81.49;97594.19;4898764;29;20079;-90
2022/01/04 02:18:12;;;;;;;0.90;0.90;;;;;;;-9.48;81.46;97598.59;4917437;29;20526;-90
2022/01/04 02:20:39;;;;;;;0.82;0.82;;;;;;;-9.47;81.45;97600.25;4920952;29;20068;-90
2022/01/04 02:23:06;;;;;;;1.10;1.10;;;;;;;-9.42;81.66;97605.84;4922031;29;20048;-90
2022/01/04 02:25:38;;;;;;;0.82;0.82;;;;;;;-9.42;81.53;97607.63;4924367;29;20119;-90
2022/01/04 02:28:07;;;;;;;1.13;1.13;;;;;;;-9.42;81.71;97612.84;4923829;29;20056;-90
2022/01/04 02:30:34;;;;;;;1.00;1.00;;;;;;;-9.42;81.65;97613.69;4904482;29;20044;-90
2022/01/04 02:33:01;;;;;;;0.80;0.80;;;;;;;-9.36;81.75;97612.25;4923628;29;20067;-89
2022/01/04 02:35:30;;;;;;;0.95;0.95;;;;;;;-9.34;81.58;97614.69;4924441;29;20056;-90
2022/01/04 02:37:59;;;;;;;0.80;0.80;;;;;;;-9.36;81.65;97617.47;4925364;29;20044;-90
2022/01/04 02:40:26;;;;;;;0.80;0.80;;;;;;;-9.33;81.53;97606.72;4912845;29;20080;-88
2022/01/04 02:42:54;;;;;;;0.95;0.95;;;;;;;-9.31;81.73;97615.22;4937353;29;20060;-91
2022/01/04 02:45:22;;;;;;;0.90;0.90;;;;;;;-9.34;81.55;97612.91;4936879;29;20055;-91
2022/01/04 02:47:50;;;;;;;0.90;0.90;;;;;;;-9.35;81.49;97608.66;4928017;29;20052;-89
2022/01/04 02:50:17;;;;;;;0.80;0.80;;;;;;;-9.41;81.62;97619.72;4931288;29;20130;-91
2022/01/04 02:52:44;;;;;;;1.00;1.00;;;;;;;-9.42;81.65;97608.47;4932934;29;20063;-90
2022/01/04 02:55:15;;;;;;;1.00;1.00;;;;;;;-9.38;81.61;97627.25;4928819;29;20052;-91
2022/01/04 02:57:48;;;;;;;0.80;0.80;;;;;;;-9.33;81.61;97629.41;4926321;29;20048;-90
2022/01/04 03:00:16;;;;;;;0.93;0.93;;;;;;;-9.32;81.73;97629.25;4918653;29;20086;-89
2022/01/04 03:02:44;;;;;;;0.90;0.90;;;;;;;-9.33;81.62;97625.00;4917364;29;20052;-90
2022/01/04 03:05:11;;;;;;;1.00;1.00;;;;;;;-9.28;81.66;97629.78;4901930;29;20104;-90
2022/01/04 03:07:38;;;;;;;0.90;0.90;;;;;;;-9.33;81.71;97626.78;4914783;29;20063;-90
2022/01/04 03:10:06;;;;;;;0.80;0.80;;;;;;;-9.38;81.67;97630.69;4919960;29;20060;-90
2022/01/04 03:12:34;;;;;;;1.00;1.00;;;;;;;-9.36;81.61;97646.22;4917559;29;20103;-89
2022/01/04 03:15:03;;;;;;;0.73;0.73;;;;;;;-9.35;81.83;97641.81;4910127;29;20052;-91
2022/01/04 03:17:35;;;;;;;1.00;1.00;;;;;;;-9.31;81.92;97646.56;4917140;29;20233;-89
2022/01/04 03:20:03;;;;;;;1.02;1.02;;;;;;;-9.26;81.49;97648.75;4917617;29;20048;-89
2022/01/04 03:22:30;;;;;;;1.02;1.02;;;;;;;-9.29;81.60;97654.25;4917074;29;20087;-90
2022/01/04 03:24:57;;;;;;;1.08;1.08;;;;;;;-9.27;81.44;97652.31;4911571;29;20120;-90
2022/01/04 03:27:24;;;;;;;0.90;0.90;;;;;;;-9.29;81.37;97660.31;4910835;29;20116;-90
2022/01/04 03:29:51;;;;;;;0.88;0.88;;;;;;;-9.26;81.70;97657.38;4917890;29;20116;-90
2022/01/04 03:32:19;;;;;;;0.93;0.93;;;;;;;-9.24;81.54;97665.06;4920255;29;20060;-91
2022/01/04 03:34:46;;;;;;;0.90;0.90;;;;;;;-9.21;81.72;97652.53;4920939;29;20060;-88
2022/01/04 03:37:13;;;;;;;0.80;0.80;;;;;;;-9.18;81.67;97656.63;4918471;29;20151;-90
2022/01/04 03:39:40;;;;;;;0.90;0.90;;;;;;;-9.16;81.86;97655.50;4919227;29;20104;-90
2022/01/04 03:42:07;;;;;;;0.95;0.95;;;;;;;-9.12;81.50;97655.19;4916180;29;20075;-90
2022/01/04 03:44:34;;;;;;;0.95;0.95;;;;;;;-9.15;81.36;97656.31;4918510;29;20060;-91
2022/01/04 03:47:02;;;;;;;1.00;1.00;;;;;;;-9.19;81.43;97661.03;4917538;29;20792;-89
2022/01/04 03:49:29;;;;;;;0.98;0.98;;;;;;;-9.21;81.39;97662.97;4900808;29;20044;-91
2022/01/04 03:51:57;;;;;;;0.90;0.90;;;;;;;-9.21;81.37;97660.38;4917608;29;20056;-90
2022/01/04 03:54:24;;;;;;;0.90;0.90;;;;;;;-9.21;81.47;97667.41;4915124;29;20507;-92
2022/01/04 03:56:51;;;;;;;0.95;0.95;;;;;;;-9.20;81.34;97664.59;4917938;29;20052;-90
2022/01/04 03:59:18;;;;;;;1.10;1.10;;;;;;;-9.24;81.18;97676.34;4917797;29;20067;-91
2022/01/04 04:01:47;;;;;;;0.95;0.95;;;;;;;-9.29;81.45;97676.00;4917584;29;20261;-89
2022/01/04 04:04:14;;;;;;;1.10;1.10;;;;;;;-9.32;81.42;97675.47;4917061;29;20079;-91
2022/01/04 04:06:42;;;;;;;1.00;1.00;;;;;;;-9.42;81.36;97670.31;4914834;29;20123;-89
2022/01/04 04:09:09;;;;;;;0.80;0.80;;;;;;;-9.46;81.43;97669.00;4903758;29;20056;-89
2022/01/04 04:11:36;;;;;;;1.00;1.00;;;;;;;-9.46;81.48;97666.38;4905700;29;20056;-90
2022/01/04 04:14:03;;;;;;;0.98;0.98;;;;;;;-9.43;81.45;97666.06;4916970;29;20048;-90
2022/01/04 04:16:33;;;;;;;1.10;1.10;;;;;;;-9.51;81.43;97659.00;4906329;29;20107;-90
2022/01/04 04:19:00;;;;;;;1.00;1.00;;;;;;;-9.55;81.46;97667.28;4917532;29;20149;-90
2022/01/04 04:21:27;;;;;;;0.90;0.90;;;;;;;-9.57;81.42;97674.44;4916842;29;20308;-88
2022/01/04 04:23:54;;;;;;;1.10;1.10;;;;;;;-9.58;81.53;97668.41;4916758;29;20044;-90
2022/01/04 04:26:21;;;;;;;0.80;0.80;;;;;;;-9.62;81.44;97667.88;4917342;29;20052;-90
2022/01/04 04:28:48;;;;;;;0.90;0.90;;;;;;;-9.61;81.50;97669.50;4918774;29;20058;-89
2022/01/04 04:31:15;;;;;;;0.90;0.90;;;;;;;-9.57;81.45;97666.59;4918965;29;20056;-90
2022/01/04 04:33:43;;;;;;;0.80;0.80;;;;;;;-9.58;81.66;97670.19;4921049;29;20067;-91
2022/01/04 04:36:10;;;;;;;0.90;0.90;;;;;;;-9.60;81.63;97660.69;4917604;29;20088;-90
2022/01/04 04:38:37;;;;;;;1.00;1.00;;;;;;;-9.58;81.63;97664.97;4936053;29;20052;-91
2022/01/04 04:41:04;;;;;;;0.85;0.85;;;;;;;-9.56;81.70;97663.84;4918524;29;20055;-89
2022/01/04 04:43:31;;;;;;;0.77;0.77;;;;;;;-9.51;81.61;97664.22;4919500;29;20060;-89
2022/01/04 04:46:03;;;;;;;1.00;1.00;;;;;;;-9.46;81.68;97669.00;4925839;29;20056;-87
2022/01/04 04:48:31;;;;;;;1.05;1.05;;;;;;;-9.48;81.23;97670.94;4920775;29;20052;-90
2022/01/04 04:50:58;;;;;;;1.08;1.08;;;;;;;-9.46;81.46;97676.84;4919771;29;20124;-89
2022/01/04 04:53:25;;;;;;;1.10;1.10;;;;;;;-9.45;81.32;97676.66;4919951;29;20091;-89
2022/01/04 04:55:52;;;;;;;0.98;0.98;;;;;;;-9.43;81.40;97687.78;4918881;29;20284;-88
2022/01/04 04:58:19;;;;;;;0.98;0.98;;;;;;;-9.42;81.18;97683.38;4901689;29;20423;-89
2022/01/04 05:00:46;;;;;;;1.02;1.02;;;;;;;-9.38;81.28;97700.41;4921434;29;20100;-90
2022/01/04 05:03:13;;;;;;;1.00;1.00;;;;;;;-9.37;81.24;97699.41;4905645;29;20048;-90
2022/01/04 05:05:41;;;;;;;0.82;0.82;;;;;;;-9.33;81.29;97700.78;4916398;29;20139;-89
2022/01/04 05:08:08;;;;;;;1.02;1.02;;;;;;;-9.31;81.46;97700.63;4901144;29;20041;-89
2022/01/04 05:10:35;;;;;;;1.10;1.10;;;;;;;-9.32;81.13;97697.19;4917165;29;20052;-90
2022/01/04 05:13:02;;;;;;;1.00;1.00;;;;;;;-9.44;81.03;97701.03;4917688;29;20047;-89
2022/01/04 05:15:29;;;;;;;0.90;0.90;;;;;;;-9.49;81.14;97706.69;4918314;29;20111;-89
2022/01/04 05:17:56;;;;;;;1.00;1.00;;;;;;;-9.47;81.24;97709.13;4921848;29;20123;-89
2022/01/04 05:20:23;;;;;;;1.00;1.00;;;;;;;-9.59;81.37;97708.56;4918178;29;20076;-89
2022/01/04 05:22:50;;;;;;;0.98;0.98;;;;;;;-9.61;81.32;97719.13;4921742;29;20526;-90
2022/01/04 05:25:17;;;;;;;0.93;0.93;;;;;;;-9.62;81.41;97717.50;4921344;29;20078;-91
2022/01/04 05:27:45;;;;;;;1.08;1.08;;;;;;;-9.58;81.41;97723.25;4924957;29;20060;-90
2022/01/04 05:30:12;;;;;;;1.10;1.10;;;;;;;-9.57;81.38;97718.84;4911206;29;20044;-88
2022/01/04 05:32:39;;;;;;;1.02;1.02;;;;;;;-9.60;81.43;97720.78;4922781;29;20515;-89
2022/01/04 05:35:06;;;;;;;1.10;1.10;;;;;;;-9.63;81.24;97721.06;4910182;29;20059;-90
2022/01/04 05:37:34;;;;;;;0.93;0.93;;;;;;;-9.66;81.31;97721.38;4921472;29;20052;-89
2022/01/04 05:40:01;;;;;;;1.00;1.00;;;;;;;-9.70;81.28;97729.66;4914067;29;20056;-90
2022/01/04 05:42:29;;;;;;;0.85;0.85;;;;;;;-9.75;81.49;97724.84;4920505;29;20056;-88
2022/01/04 05:44:56;;;;;;;1.00;1.00;;;;;;;-9.76;81.55;97725.03;4917723;29;20060;-89
2022/01/04 05:47:26;;;;;;;1.20;1.10;;;;;;;-9.74;81.65;97723.91;4921541;29;20056;-89
2022/01/04 05:49:53;;;;;;;0.90;0.90;;;;;;;-9.79;81.54;97713.09;4924778;29;20052;-89
2022/01/04 05:52:20;;;;;;;1.00;1.00;;;;;;;-9.79;81.60;97713.09;4918807;29;20411;-90
2022/01/04 05:54:49;;;;;;;1.10;1.10;;;;;;;-9.81;81.59;97715.03;4910721;29;20084;-90
2022/01/04 05:57:16;;;;;;;1.15;1.15;;;;;;;-9.81;81.47;97718.44;4934103;29;20051;-90
2022/01/04 05:59:43;;;;;;;0.90;0.90;;;;;;;-9.77;81.38;97721.59;4933540;29;20084;-89
2022/01/04 06:02:11;;;;;;;1.17;1.15;;;;;;;-9.74;81.17;97729.13;4939802;29;20059;-89
2022/01/04 06:04:46;;;;;;;1.30;1.20;;;;;;;-9.79;81.12;97731.38;4937874;29;20086;-89
2022/01/04 06:08:06;;;;;;;1.08;1.08;;;;;;;-9.78;81.34;97726.97;4933769;29;20039;-85
2022/01/04 06:10:38;;;;;;;1.08;1.08;;;;;;;-9.79;81.17;97733.97;4922978;29;20135;-89
2022/01/04 06:15:33;;;;;;;1.30;1.20;;;;;;;-9.64;81.24;97739.53;4927520;29;20523;-87
2022/01/04 06:18:03;;;;;;;1.10;1.10;;;;;;;-9.66;81.09;97739.66;4931904;29;20048;-86
2022/01/04 06:20:43;;;;;;;1.10;1.10;;;;;;;-9.76;81.17;97728.44;5268675;23;20038;-91
2022/01/04 06:23:14;;;;;;;1.05;1.05;;;;;;;-9.76;81.41;97746.72;4890333;29;20060;-90
2022/01/04 06:25:42;;;;;;;0.90;0.90;;;;;;;-9.65;81.49;97749.13;4914444;29;20144;-86
2022/01/04 06:28:09;;;;;;;1.00;1.00;;;;;;;-9.58;81.48;97756.38;4904683;29;20064;-81
2022/01/04 06:30:37;;;;;;;0.98;0.98;;;;;;;-9.57;81.12;97753.59;4872950;29;20053;-89
2022/01/04 06:33:04;;;;;;;1.20;1.17;;;;;;;-9.62;81.17;97756.69;4905005;29;20064;-90
2022/01/04 06:35:33;;;;;;;1.00;1.00;;;;;;;-9.55;81.28;97763.91;4922182;29;20047;-87
2022/01/04 06:38:01;;;;;;;0.98;0.98;;;;;;;-9.57;81.29;97774.50;4915590;29;20076;-89
2022/01/04 06:40:29;;;;;;;1.00;1.00;;;;;;;-9.61;81.30;97779.22;4889380;29;20056;-87
2022/01/04 06:42:56;;;;;;;0.70;0.70;;;;;;;-9.60;81.11;97782.63;4555479;29;9999902;-85
2022/01/04 06:45:23;;;;;;;0.90;0.90;;;;;;;-9.57;81.13;97778.91;4879053;29;20293;-88
2022/01/04 06:47:50;;;;;;;0.90;0.90;;;;;;;-9.54;80.96;97779.44;4881513;29;20044;-85
2022/01/04 06:50:18;;;;;;;1.00;1.00;;;;;;;-9.58;81.24;97785.94;4905344;29;20537;-87
2022/01/04 06:52:45;;;;;;;0.90;0.90;;;;;;;-9.48;81.03;97801.53;4905041;29;20059;-84
2022/01/04 06:55:15;;;;;;;1.00;1.00;;;;;;;-9.45;80.88;97802.06;4912135;29;20098;-85
2022/01/04 06:57:43;;;;;;;1.00;1.00;;;;;;;-9.43;80.66;97799.31;4912624;29;20139;-87
2022/01/04 07:00:11;;;;;;;1.10;1.10;;;;;;;-9.38;80.69;97804.91;4909838;29;20504;-84
2022/01/04 07:02:38;;;;;;;0.90;0.90;;;;;;;-9.33;80.37;97800.06;4910114;29;20503;-84
2022/01/04 07:05:06;;;;;;;0.80;0.80;;;;;;;-9.45;80.41;97804.66;4903463;29;20057;-83
2022/01/04 07:07:33;;;;;;;0.90;0.90;;;;;;;-9.42;80.03;97800.94;4900805;29;20099;-83
2022/01/04 07:10:01;;;;;;;0.80;0.80;;;;;;;-9.36;80.12;97808.22;4895143;29;20052;-85
2022/01/04 07:12:29;;;;;;;0.98;0.98;;;;;;;-9.35;79.74;97812.44;4908077;29;20084;-86
2022/01/04 07:14:56;;;;;;;1.05;1.05;;;;;;;-9.39;79.71;97811.94;4907623;29;20055;-84
2022/01/04 07:17:23;;;;;;;1.13;1.13;;;;;;;-9.41;79.32;97818.28;4920321;29;20052;-85
2022/01/04 07:19:50;;;;;;;1.15;1.13;;;;;;;-9.34;79.38;97814.13;4923016;29;20051;-82
2022/01/04 07:22:17;;;;;;;1.10;1.10;;;;;;;-9.26;79.43;97808.97;4912398;29;20596;-83
2022/01/04 07:24:44;;;;;;;0.98;0.98;;;;;;;-9.21;79.17;97824.19;4893795;29;20048;-84
2022/01/04 07:27:16;;;;;;;1.10;1.10;;;;;;;-9.22;78.96;97818.13;4910289;29;20054;-83
2022/01/04 07:29:43;;;;;;;0.90;0.90;;;;;;;-9.25;78.68;97826.28;4898421;29;20052;-84
2022/01/04 07:32:11;;;;;;;1.05;1.05;;;;;;;-9.20;78.68;97826.66;4876221;29;20047;-87
2022/01/04 07:34:41;;;;;;;0.70;0.70;;;;;;;-9.16;78.72;97820.16;4909738;29;20059;-85
2022/01/04 07:37:09;;;;;;;0.90;0.90;;;;;;;-9.10;78.49;97821.34;4906449;29;20056;-85
2022/01/04 07:39:36;;;;;;;0.88;0.88;;;;;;;-9.11;78.46;97824.09;4902339;29;20080;-87
2022/01/04 07:42:03;;;;;;;1.13;1.13;;;;;;;-9.09;78.44;97830.81;4901381;29;20052;-88
2022/01/04 07:44:32;;;;;;;0.80;0.80;;;;;;;-9.14;78.19;97824.41;4891636;29;20115;-90
2022/01/04 07:47:00;;;;;;;0.95;0.95;;;;;;;-9.12;78.33;97823.28;4914227;29;20044;-88
2022/01/04 07:49:27;;;;;;;0.90;0.90;;;;;;;-9.06;78.02;97824.47;4911527;29;20151;-89
2022/01/04 07:51:54;;;;;;;1.10;1.10;;;;;;;-9.00;77.73;97831.75;4907183;29;20056;-89
2022/01/04 07:54:21;;;;;;;1.00;1.00;;;;;;;-9.00;77.26;97831.75;4913144;29;20055;-89
2022/01/04 07:56:48;;;;;;;1.10;1.10;;;;;;;-8.92;77.38;97834.41;4914553;29;20052;-88
2022/01/04 07:59:16;;;;;;;0.90;0.90;;;;;;;-8.88;77.32;97838.38;4895555;29;20052;-90
2022/01/04 08:01:43;;;;;;;1.10;1.10;;;;;;;-8.80;77.27;97838.47;4917526;29;20626;-92
2022/01/04 08:04:11;;;;;;;1.00;1.00;;;;;;;-8.86;76.97;97836.47;4916870;29;20029;-89
2022/01/04 08:06:39;;;;;;;1.00;1.00;;;;;;;-8.85;76.89;97839.88;4897827;29;20051;-88
2022/01/04 08:09:09;;;;;;;0.80;0.80;;;;;;;-8.84;76.78;97837.09;4917669;29;20056;-88
2022/01/04 08:11:36;;;;;;;1.10;1.10;;;;;;;-8.69;76.76;97837.38;4928399;29;20044;-90
2022/01/04 08:14:05;;;;;;;0.95;0.95;;;;;;;-8.64;76.51;97835.13;4926932;29;20051;-87
2022/01/04 08:16:32;;;;;;;0.88;0.88;;;;;;;-8.72;76.53;97835.09;4923960;29;20064;-86
2022/01/04 08:19:01;;;;;;;0.98;0.98;;;;;;;-8.73;76.58;97836.06;4917940;29;20047;-88
2022/01/04 08:21:32;;;;;;;0.75;0.75;;;;;;;-8.56;76.25;97839.63;4908544;29;20532;-88
2022/01/04 08:23:59;;;;;;;0.80;0.80;;;;;;;-8.59;75.90;97837.31;4932313;29;20048;-88
2022/01/04 08:26:28;;;;;;;0.90;0.90;;;;;;;-8.51;76.14;97839.97;4932138;29;20051;-90
2022/01/04 08:28:56;;;;;;;0.90;0.90;;;;;;;-8.47;75.89;97843.94;4925948;29;20058;-90
2022/01/04 08:31:23;;;;;;;0.90;0.90;;;;;;;-8.47;75.80;97843.13;4916332;29;20112;-91
2022/01/04 08:33:52;;;;;;;1.00;1.00;;;;;;;-8.44;75.70;97843.63;4906555;29;20090;-86
2022/01/04 08:36:29;;;;;;;0.75;0.75;;;;;;;-8.45;75.76;97838.56;4899705;29;20048;-88
2022/01/04 08:38:57;;;;;;;1.00;1.00;;;;;;;-8.35;75.70;97847.94;4902075;29;20048;-90
2022/01/04 08:41:24;;;;;;;1.00;1.00;;;;;;;-8.33;75.72;97840.75;4920062;29;20074;-87
2022/01/04 08:43:51;;;;;;;0.70;0.70;;;;;;;-8.26;75.38;97843.56;4912607;29;20048;-86
2022/01/04 08:46:18;;;;;;;1.00;1.00;;;;;;;-8.21;75.35;97843.09;4908798;29;20057;-87
2022/01/04 08:48:46;;;;;;;0.98;0.98;;;;;;;-8.22;75.22;97833.63;4856166;29;20057;-88
2022/01/04 08:51:13;;;;;;;0.80;0.80;;;;;;;-8.26;75.12;97830.47;4888943;29;20059;-85
2022/01/04 08:53:40;;;;;;;1.00;1.00;;;;;;;-8.13;75.22;97835.28;4907039;29;20052;-88
2022/01/04 08:56:08;;;;;;;1.10;1.10;;;;;;;-8.16;74.60;97840.84;4873210;29;20416;-88
2022/01/04 08:58:35;;;;;;;0.98;0.98;;;;;;;-8.21;74.68;97841.28;4905096;29;20079;-88
2022/01/04 09:01:03;;;;;;;0.80;0.80;;;;;;;-8.19;74.79;97830.69;4905532;29;20108;-87
2022/01/04 09:03:30;;;;;;;0.70;0.70;;;;;;;-8.06;74.66;97842.38;4884950;29;20048;-88
2022/01/04 09:05:58;;;;;;;0.80;0.80;;;;;;;-7.97;74.51;97847.69;4902443;29;20044;-88
2022/01/04 09:08:25;;;;;;;0.80;0.80;;;;;;;-8.04;74.49;97850.09;4901097;29;20063;-88
2022/01/04 09:10:54;;;;;;;0.80;0.80;;;;;;;-8.12;74.37;97850.03;4884412;29;20048;-87
2022/01/04 09:13:22;;;;;;;0.90;0.90;;;;;;;-8.19;74.31;97849.00;4890316;29;20048;-87
2022/01/04 09:18:48;;;;;;;1.00;1.00;;;;;;;-8.11;74.49;97857.72;4904897;29;20048;-88
2022/01/04 09:21:24;;;;;;;0.90;0.90;;;;;;;-8.08;73.79;97851.34;4911593;29;20056;-88
2022/01/04 09:23:53;;;;;;;1.00;1.00;;;;;;;-7.93;73.65;97851.59;4904344;29;20085;-89
2022/01/04 09:26:21;;;;;;;0.80;0.80;;;;;;;-7.92;73.41;97851.47;4889964;29;20111;-88
2022/01/04 09:29:06;;;;;;;0.85;0.85;;;;;;;-7.82;73.39;97853.13;4900919;29;20104;-87
2022/01/04 09:31:34;;;;;;;0.70;0.70;;;;;;;-7.73;73.26;97860.06;4890623;29;20062;-88
2022/01/04 09:34:07;;;;;;;0.73;0.73;;;;;;;-7.81;73.03;97855.59;4906043;29;20147;-88
2022/01/04 09:36:39;;;;;;;0.80;0.80;;;;;;;-8.09;72.99;97863.63;4871586;29;20056;-87
2022/01/04 09:39:29;;;;;;;0.85;0.85;;;;;;;-8.06;73.44;97859.88;4904198;29;20061;-88
2022/01/04 09:41:56;;;;;;;1.00;1.00;;;;;;;-7.96;73.39;97857.97;4905137;29;20538;-87
2022/01/04 09:44:25;;;;;;;1.00;1.00;;;;;;;-7.94;73.06;97853.41;4905853;29;20055;-86
2022/01/04 09:46:52;;;;;;;1.00;1.00;;;;;;;-8.08;73.22;97852.19;4910147;29;20057;-87
2022/01/04 09:49:20;;;;;;;1.05;1.05;;;;;;;-8.02;73.24;97850.75;4911840;29;20135;-88
2022/01/04 09:51:50;;;;;;;1.10;1.10;;;;;;;-7.92;73.06;97846.22;4905173;29;20084;-88
2022/01/04 09:54:23;;;;;;;1.00;1.00;;;;;;;-8.01;72.75;97857.63;4892403;29;20060;-87
2022/01/04 09:56:52;;;;;;;0.95;0.95;;;;;;;-8.05;72.73;97858.94;4904474;29;20112;-87
2022/01/04 09:59:20;;;;;;;0.90;0.90;;;;;;;-8.03;72.85;97856.94;4907567;29;20044;-87
2022/01/04 10:01:53;;;;;;;0.80;0.80;;;;;;;-8.10;72.96;97861.16;4906424;29;20055;-86
2022/01/04 10:04:24;;;;;;;0.70;0.70;;;;;;;-8.09;73.02;97861.00;4905490;29;20068;-86
2022/01/04 10:07:05;;;;;;;0.65;0.65;;;;;;;-8.02;73.03;97865.66;4905177;29;20084;-88
2022/01/04 10:09:45;;;;;;;1.00;1.00;;;;;;;-7.90;73.00;97867.84;4901558;29;20096;-88
2022/01/04 10:12:15;;;;;;;0.90;0.90;;;;;;;-7.90;72.99;97870.47;4903062;29;20045;-86
2022/01/04 10:14:48;;;;;;;1.10;1.10;;;;;;;-7.89;72.47;97863.44;4903632;29;20060;-86
2022/01/04 10:17:28;;;;;;;0.93;0.93;;;;;;;-8.02;72.90;97858.59;4906298;29;20079;-88
2022/01/04 10:19:58;;;;;;;0.98;0.98;;;;;;;-8.03;72.97;97864.00;4885505;29;20052;-86
2022/01/04 10:22:27;;;;;;;0.60;0.60;;;;;;;-8.11;73.23;97855.09;4904457;29;20512;-87
2022/01/04 10:25:00;;;;;;;0.70;0.70;;;;;;;-8.14;73.24;97857.22;4903365;29;20052;-87
2022/01/04 10:27:33;;;;;;;0.63;0.63;;;;;;;-8.19;73.21;97859.47;4905647;29;20512;-87
2022/01/04 10:30:28;;;;;;;1.00;1.00;;;;;;;-8.06;73.41;97857.25;4907512;29;20049;-87
2022/01/04 10:33:07;;;;;;;0.70;0.70;;;;;;;-7.97;73.06;97858.97;4894434;29;20056;-86
2022/01/04 10:35:43;;;;;;;0.90;0.90;;;;;;;-8.16;73.22;97872.25;4890332;29;20055;-87
2022/01/04 10:38:22;;;;;;;0.80;0.80;;;;;;;-8.16;73.19;97867.03;4900802;29;20048;-86
2022/01/04 10:40:50;;;;;;;1.10;1.10;;;;;;;-8.17;73.29;97860.16;4902013;29;20079;-86
2022/01/04 10:43:19;;;;;;;0.80;0.80;;;;;;;-8.23;73.35;97860.75;4887154;29;20056;-86
2022/01/04 10:45:48;;;;;;;1.00;1.00;;;;;;;-8.25;73.41;97868.78;4902955;29;20112;-88
2022/01/04 10:48:26;;;;;;;0.70;0.70;;;;;;;-8.26;73.66;97861.88;4902684;29;20576;-87
2022/01/04 10:51:07;;;;;;;0.80;0.80;;;;;;;-8.10;73.85;97858.53;4906684;29;20053;-88
2022/01/04 10:53:41;;;;;;;0.77;0.77;;;;;;;-7.91;73.58;97865.38;4903466;29;20496;-87
2022/01/04 10:56:11;;;;;;;0.90;0.90;;;;;;;-7.98;73.43;97866.97;4906867;29;20135;-86
2022/01/04 10:58:40;;;;;;;0.70;0.70;;;;;;;-8.00;73.44;97867.13;4902314;29;20537;-85
2022/01/04 11:01:11;;;;;;;0.90;0.90;;;;;;;-7.99;73.24;97870.56;4901117;29;20409;-87
2022/01/04 11:03:44;;;;;;;0.80;0.80;;;;;;;-8.01;73.28;97872.53;4884342;29;20056;-87
2022/01/04 11:06:14;;;;;;;0.90;0.90;;;;;;;-8.08;73.16;97873.16;4902736;29;20052;-86
2022/01/04 11:08:42;;;;;;;0.90;0.90;;;;;;;-8.06;73.26;97870.34;4904643;29;20444;-87
2022/01/04 11:11:11;;;;;;;0.95;0.95;;;;;;;-8.02;73.46;97874.31;4898430;29;20059;-87
2022/01/04 11:13:41;;;;;;;0.80;0.80;;;;;;;-8.03;73.46;97874.47;4921586;29;20056;-87
2022/01/04 11:16:09;;;;;;;0.52;0.52;;;;;;;-8.03;73.37;97871.84;4874418;29;20111;-86
2022/01/04 11:18:42;;;;;;;0.80;0.80;;;;;;;-7.99;73.47;97868.78;4929033;29;20151;-85
2022/01/04 11:21:14;;;;;;;1.08;1.08;;;;;;;-8.01;73.48;97864.66;4905412;29;20071;-89
2022/01/04 11:23:43;;;;;;;0.95;0.95;;;;;;;-8.02;73.55;97863.03;4910450;29;20067;-87
2022/01/04 11:26:11;;;;;;;0.88;0.88;;;;;;;-7.99;73.49;97870.56;4912710;29;20086;-90
2022/01/04 11:28:42;;;;;;;0.70;0.70;;;;;;;-7.83;73.55;97872.44;4914048;29;20083;-89
2022/01/04 11:31:09;;;;;;;1.17;1.13;;;;;;;-7.77;73.39;97866.56;4930977;29;20052;-88
2022/01/04 11:33:48;;;;;;;0.80;0.80;;;;;;;-7.83;73.19;97875.06;4924673;29;20047;-89
2022/01/04 11:36:20;;;;;;;0.80;0.80;;;;;;;-7.76;73.44;97878.72;4926157;29;20055;-89
2022/01/04 11:38:50;;;;;;;0.73;0.73;;;;;;;-7.79;73.21;97881.66;4910596;29;20052;-90
2022/01/04 11:41:38;;;;;;;0.88;0.88;;;;;;;-7.93;73.15;97886.47;4892390;29;20049;-91
2022/01/04 11:44:22;;;;;;;0.80;0.80;;;;;;;-8.00;73.37;97877.63;4891440;29;20071;-90
2022/01/04 11:47:03;;;;;;;0.90;0.90;;;;;;;-7.94;73.76;97882.22;4899254;29;20072;-90
2022/01/04 11:53:36;;;;;;;0.90;0.90;;;;;;;-8.21;73.83;97864.03;4904399;29;20076;-89
2022/01/04 11:56:46;;;;;;;0.90;0.90;;;;;;;-8.18;74.21;97877.63;4913920;29;20500;-88